Back to race calendar - Vets and statistics - Printer friendly results

Dalby Dash, Dalby Forest, N. Yorks

12th November 2017

(This is a sortable table - click column heading) Tag "L" indicates Local runner (YO18 postcode only, not just because you ticked the box!!)
Filter (choose one only!)
Name:
Cat: Club:
PosNumMFNameCatCatPosClubTimeTag
173001 Mike BurrettM40(001/037)Leeds City AC00:31:59 
2554002 Nathan VeallMS(001/072)York Triathlon00:33:50 
3507003 David SmithersM45(001/041)York Knavesmire Harriers00:34:31 
4208004 Gareth GreenM40(002/037)York Knavesmire Harriers00:34:39 
5120 001Helen CrossFS(001/093)York Triathlon00:35:04 
6426005 Richard PurserMS(002/072)Unattached00:35:20 
7368006 Simon MiddletonM40(003/037)York Postal Harriers00:37:16 
8505007 Michael KeedyM45(002/041)St. Theresa's AC00:37:23 
9348008 Stephen MaddisonM45(003/041)York Knavesmire Harriers00:37:40 
1041009 Chris BartleMS(003/072)Kippax & District Harrs.00:37:54 
11602010 Richard LowsonMS(004/072)York Knavesmire Harriers00:37:57 
12189011 Craig GathM40(004/037)Unattached00:38:00 
13580012 John WileyMS(005/072)Pocklington Runners00:38:03 
14527 002Nik TarregaFS(002/093)York Knavesmire Harriers00:38:03 
15143013 Steve DewsMS(006/072)Unattached00:38:05 
1651014 Ben BewleyMS(007/072)Newcastle (Staffs) AC00:38:09 
17397015 Luke OsbornMS(008/072)York Knavesmire Harriers00:38:17 
18247016 Darren HendleyM40(005/037)York Knavesmire Harriers00:38:19 
19408017 Pete PearsonMS(009/072)Unattached00:38:23 
20548 003Heather TuffsFS(003/093)Unattached00:38:31 
21594018 Joe WorthingtonMS(010/072)Ackworth Road Runners &AC00:38:39 
2279019 Chris CarrickM40(006/037)Kippax & District Harrs.00:38:40 
23238020 Adam HartleyMS(011/072)York Triathlon00:38:43 
24386021 Jason NewmanMS(012/072)York Knavesmire Harriers00:38:45 
25350022 Simon MatsonM40(007/037)Yorkshire Wolds Runners00:39:16 
2686023 Danny ChanM40(008/037)York Knavesmire Harriers00:39:17 
27462 004Jessica RoweFS(004/093)Unattached00:39:33 
28261024 Chris HodgsonMS(013/072)Unattached00:39:36 
29576025 Mark WhitemanM50(001/060)Easingwold Running Club00:39:36 
30522026 Neil StrangeM50(002/060)York Knavesmire Harriers00:39:40 
3165027 Dean BrownMS(014/072)Kippax & District Harrs.00:39:42 
32562028 Jamie WardMS(015/072)Unattached00:39:48 
33604029 David LancasterM60(001/026)York Acorn Running Club00:40:01 
34303030 Ewan KirkMS(016/072)York Knavesmire Harriers00:40:04 
3528 005Sarah AttwoodFS(005/093)York Knavesmire Harriers00:40:23 
36228031 Aaron HarrisonMS(017/072)Unattached00:40:43 
37528032 Richard TarregaMS(018/072)York Knavesmire Harriers00:40:44 
38213033 Nick GriffinM50(003/060)York Knavesmire Harriers00:40:45 
39564034 Robert WardM40(009/037)York Knavesmire Harriers00:40:46 
40320035 Andy LawtyM45(004/041)Unattached00:40:59 
41585036 Nicholas M. WilsonM50(004/060)Unattached00:40:59 
42530037 David TaylorM60(002/026)Kippax & District Harrs.00:41:10 
43163038 Nick ElliottM50(005/060)City of York AC00:41:27 
44171039 Andy FawcettMS(019/072)York Acorn Running Club00:41:35 
45254040 Andy HillM45(005/041)Kippax & District Harrs.00:41:38 
46132041 Alan DavyMS(020/072)Kippax & District Harrs.00:41:54 
47222042 Richard HamblyM50(006/060)Hartlepool Burn Road Harr00:41:57 
48381043 James NeedhamM50(007/060)Ackworth Road Runners &AC00:41:58 
4970044 Chad BullivantMS(021/072)York Triathlon00:42:02 
50356045 Peter McgrathM40(010/037)Unattached00:42:15L
51343046 Sam LynnM40(011/037)York Postal Harriers00:42:16 
5238047 Tom BarkerMS(022/072)Unattached00:42:25 
53502048 Paul SmithM50(008/060)Pickering Running Club00:42:39 
54415049 Wesley PossibleMS(023/072)City of York AC00:42:45 
55324050 Steve LeahM40(012/037)Kippax & District Harrs.00:42:49 
5688051 Philip ChapmanMS(024/072)York Knavesmire Harriers00:43:05 
57531052 Damon TempleM40(013/037)Unattached00:43:16 
58605053 Lee BradshawM40(014/037)Unattached00:43:20 
5949054 Paul BennettMS(025/072)Unattached00:43:27 
60323055 Mark LeadbeaterM50(009/060)Ackworth Road Runners &AC00:43:29 
61553056 Ekaitz UnanueMS(026/072)Unattached00:43:31 
62427057 Simon QuartermaineM50(010/060)Unattached00:43:33 
63375058 Mark MorrisM40(015/037)Barton & District AC00:43:37 
64292059 Richard JohnsonM45(006/041)Pickering Running Club00:43:40L
65597 006Helen YoungFS(006/093)York Knavesmire Harriers00:43:43 
66480060 Chris SharpMS(027/072)Ackworth Road Runners &AC00:43:49 
67212 007Catherine GriffinF40(001/031)Unattached00:43:58 
68248 008Linda HenryFS(007/093)Unattached00:43:58 
69151061 Sam DredgeMS(028/072)York Acorn Running Club00:43:59 
70354062 Chris MayorM40(016/037)Unattached00:44:01 
7156063 Andrew BoughenM40(017/037)Unattached00:44:13 
72545064 Andrew TomlinsonMS(029/072)York Knavesmire Harriers00:44:15 
73470065 Rolan SchreiberMS(030/072)Unattached00:44:20 
74202066 Richard GoodliffeM45(007/041)Barton & District AC00:44:21 
75421067 Chris PriceM50(011/060)York Acorn Running Club00:44:23 
76253 009Lorraine HilesF50(001/066)Thirsk & Sowerby Harriers00:44:27 
77520068 Ian StoreyM50(012/060)Kippax & District Harrs.00:44:28 
78608 010Juliet MayFS(008/093)York Triathlon00:44:31 
7984069 James ChambersMS(031/072)York Knavesmire Harriers00:44:34 
80387070 Kieron NivenM40(018/037)Unattached00:44:35 
81469 011Laura SchofieldFS(009/093)York Knavesmire Harriers00:44:47 
8275071 Jack ButcherMS(032/072)Unattached00:44:50L
83227072 Robert HarperM45(008/041)Yorkshire Wolds Runners00:44:51 
84315073 Chris LancasterM40(019/037)Unattached00:44:53 
85108074 Matt ConwayMS(033/072)Unattached00:45:01 
86148 012Jeanette DowningFS(010/093)Swaledale Runners00:45:02 
87191075 Mark GeorgeM45(009/041)Kippax & District Harrs.00:45:03 
88105076 David CollinsM50(013/060)Unattached00:45:04 
89156077 Stefan DurkinM45(010/041)York Knavesmire Harriers00:45:05 
90270078 Simon HowsonM45(011/041)Easingwold Running Club00:45:05 
9159079 Chris BrewerMS(034/072)Unattached00:45:11 
92286080 Andrew JohnsonM60(003/026)York Knavesmire Harriers00:45:12 
93395081 Jonathan O'NeillM50(014/060)York Knavesmire Harriers00:45:14 
94455082 Paul RobinsonM60(004/026)Unattached00:45:16 
95442083 Alex RichardsM40(020/037)Unattached00:45:23 
96392084 Colm O'HaraM45(012/041)Kippax & District Harrs.00:45:24 
9717085 Jonathan AllsupMS(035/072)Unattached00:45:26 
981086 David AbbotMS(036/072)Unattached00:45:28 
99318087 James LawrenceM40(021/037)Unattached00:45:29 
100611 013Helen GavinFS(011/093)Unattached00:45:30 
10115088 Paul AlexanderM45(013/041)Unattached00:45:31 
102335089 David LongM40(022/037)Unattached00:45:44 
103217090 Kevin GuttridgeM45(014/041)Ackworth Road Runners &AC00:45:47 
104240091 Andy HarveyM50(015/060)Pickering Running Club00:45:48 
105526092 James TargettM40(023/037)Unattached00:45:49 
106127093 David DartonM50(016/060)York Knavesmire Harriers00:45:52 
107342094 Martin J. LuxtonM60(005/026)North York Moors AC00:45:59 
108396 014Kate OsbornFS(012/093)York Knavesmire Harriers00:46:02 
109216095 Andrew GuestM40(024/037)Scunthorpe & Dist. AC00:46:06 
11057096 Jonathan BoyleM50(017/060)York Knavesmire Harriers00:46:11 
111210097 Steve GreenM45(015/041)Unattached00:46:13 
11295 015Hannah ClarkFS(013/093)Unattached00:46:15 
113497098 Toby SlevinMS(037/072)Unattached00:46:16 
114486099 Anthony ShipleyM60(006/026)Unattached00:46:22 
115447100 James RichardsonM40(025/037)City of York AC00:46:30 
116609101 Neil MayM50(018/060)City of Hull AC00:46:31 
117165102 Mark EstienneM45(016/041)York Acorn Running Club00:46:31 
1182103 Alex AbbottM50(019/060)Unattached00:46:32L
119232104 Elliot HarrisonM40(026/037)Unattached00:46:37 
120388 016Jane NodderF50(002/066)York Knavesmire Harriers00:46:40 
121230 017Cheryl HarrisonF50(003/066)Bramley Breezers00:46:40 
122288 018Katie JohnsonFS(014/093)Scunthorpe & Dist. AC00:46:51 
123465 019Helen RutterF45(001/029)Yorkshire Wolds Runners00:47:04 
124251 020Jo HeseltineF50(004/066)Rothwell & District Harr.00:47:07 
125532105 Jason TempletonM45(017/041)Unattached00:47:09 
126269106 Carl HorthMS(038/072)City of Hull AC00:47:10 
12723107 Christian AshtonMS(039/072)Unattached00:47:13 
128344 021Sharon LynnF40(002/031)York Acorn Running Club00:47:14 
129541 022Colleen ThundercliffF50(005/066)Unattached00:47:16 
130414108 Daniel PopaMS(040/072)Selby Striders00:47:38 
131196109 Rob GillhamM50(020/060)Quakers Running Club00:47:41 
132389110 John NodderM60(007/026)York Knavesmire Harriers00:47:42 
133473111 Jonathan ScottMS(041/072)Unattached00:47:47 
134591112 Sean WoodwardM50(021/060)Unattached00:47:58 
135478113 Tim SelvesM50(022/060)Unattached00:48:05 
136256114 John HinchliffeM40(027/037)Unattached00:48:07L
137610 023Kirsty NaylorFS(015/093)Unattached00:48:09 
138310115 Michael KnowlesM50(023/060)Ackworth Road Runners &AC00:48:10 
139110116 Colin CookM50(024/060)Unattached00:48:20 
140293117 Anthony JonesM50(025/060)Unattached00:48:21 
141337 024Helen LongFS(016/093)Unattached00:48:27 
142296 025Ruth KaftiraniFS(017/093)Unattached00:48:29L
143474118 Steven ScottM45(018/041)Thirsk & Sowerby Harriers00:48:34 
144440119 Simon RekM45(019/041)Quakers Running Club00:48:35 
145366120 John MiddletonM50(026/060)York Knavesmire Harriers00:48:39 
146107 026Hilary ConwayFS(018/093)Unattached00:48:41 
147312 027Marie LadlowFS(019/093)Unattached00:48:49 
148601121 Michael HethertonM60(008/026)Pickering Running Club00:48:52 
149377 028Sue MoulF50(006/066)Harrogate Harriers00:48:54 
150289 029Gemma FearnleyFS(020/093)Unattached00:49:14 
151187122 Mark GarryM50(027/060)Unattached00:49:15 
152264 030Sandra HoldsworthF60(001/021)West Hull Ladies RRC00:49:16 
153523123 David SuddabyMS(042/072)Unattached00:49:18 
154135124 John DawsonMS(043/072)Selby Striders00:49:20 
155263125 Tim HoeM50(028/060)Unattached00:49:25 
156326126 Andrew LeemingM50(029/060)Unattached00:49:31 
157411127 Brian S. PerfittM45(020/041)Eccleshill Road Runners00:49:40 
158199 031Martina GjoniFS(021/093)Unattached00:49:40 
159584128 Ian R. WilsonM45(021/041)Ackworth Road Runners &AC00:49:41 
160457129 Tom LishmanMS(044/072)Unattached00:49:43 
161536 032Lucy ThompsonFS(022/093)Hornsea Harriers00:49:43 
162118130 Rich CreaserM45(022/041)Unattached00:49:46L
16322131 Nick AppleyardMS(045/072)Vegan Runners00:49:46 
1649132 Andrew AirdM50(030/060)Nidd Valley Road Runners00:49:48 
165436133 Jon ReastM50(031/060)Unattached00:49:49 
166346134 Peter LythM50(032/060)York Knavesmire Harriers00:49:50 
167358 033Danielle McleodFS(023/093)Unattached00:49:54 
168484 034Clare SherwoodFS(024/093)Unattached00:49:58 
169430135 Josh RabetMS(046/072)Unattached00:50:07 
170266136 Paul HollidayM45(023/041)Unattached00:50:10 
171363137 John A. MessengerM60(009/026)Kippax & District Harrs.00:50:12 
17253138 James BlanchardM40(028/037)Unattached00:50:18 
173537139 Paul ThompsonM50(033/060)Hornsea Harriers00:50:20 
17476140 David BygraveM50(034/060)York Knavesmire Harriers00:50:22 
175467 035Kathryn SaundersFS(025/093)Newcastle (Staffs) AC00:50:25 
17633 036Amy BailissFS(026/093)York Acorn Running Club00:50:29 
177471 037Rachel ScillitoeF50(007/066)Unattached00:50:43 
178443141 Dean RichardsonMS(047/072)Unattached00:50:44 
179170 038Heather FarrowF60(002/021)York Acorn Running Club00:50:52L
180556142 Ian VoganM60(010/026)Ackworth Road Runners &AC00:50:53 
181192143 Chris ActonM50(035/060)Unattached00:50:54 
182370144 Lee MitchellMS(048/072)Unattached00:50:57 
183115 039Jane CowleyF50(008/066)Easingwold Running Club00:50:58 
184104 040Dianne ColemanF50(009/066)Beverley AC00:50:58 
18589 041Wendy ChapmanF50(010/066)Kippax & District Harrs.00:51:00 
186463 042Suzie RoweF40(003/031)Unattached00:51:04 
187418 043Jane PowerF50(011/066)City of York AC00:51:11 
18894 044Anne CheesemanF50(012/066)Ripon Runners00:51:16 
189207145 David GreavesM50(036/060)Unattached00:51:20 
190233146 Haydn HarrisonMS(049/072)Bramley Breezers00:51:21 
191201 045Karen GlynnF45(002/029)Kippax & District Harrs.00:51:23 
192225147 Simon HardyM45(024/041)Unattached00:51:25 
193409 046Jodie PearyFS(027/093)Harrogate Harriers00:51:26 
194267 047Sue HolmesF50(013/066)Kippax & District Harrs.00:51:28 
195417148 David PowerMS(050/072)Unattached00:51:32 
196209 048Shelley GreenF40(004/031)Unattached00:51:39 
197517 049Bridget StewartF45(003/029)Quakers Running Club00:51:41 
198549 050Clare TuneF45(004/029)Unattached00:51:44 
199518149 Tom StewartMS(051/072)Unattached00:51:49 
200245 051Joanne HawdenF50(014/066)Rothwell & District Harr.00:51:52 
201149150 Jason DrakeM45(025/041)Unattached00:51:56 
202529151 Paul Tate-SmithM50(037/060)Pickering Running Club00:51:58 
20397 052Nicola ClementsFS(028/093)Unattached00:51:59 
204481 053Georgie SharpFS(029/093)Ackworth Road Runners &AC00:52:03 
20582152 Tony CassM40(029/037)Unattached00:52:14 
206374 054Jane MorbyF50(015/066)York Knavesmire Harriers00:52:19 
207538153 Steve ThompsonM50(038/060)Hornsea Harriers00:52:24 
208272 055Alison HunterF50(016/066)Kippax & District Harrs.00:52:24 
209575 056Cheryl WhitehouseFS(030/093)Unattached00:52:34 
210250154 Chris HerringtonM45(026/041)Unattached00:52:34 
211352 057Liz MatthewsF50(017/066)York Knavesmire Harriers00:52:39 
212226 058Karyn HarperF50(018/066)Yorkshire Wolds Runners00:52:45 
21313155 Chris AldredM50(039/060)Unattached00:52:46 
214302156 Alastair KirkMS(052/072)Unattached00:52:48 
215119157 Tim CritchleyM40(030/037)Unattached00:52:55 
216309158 Jason KnightMS(053/072)Unattached00:52:57 
217158 059Claire EastonF45(005/029)Rothwell & District Harr.00:53:01 
218573 060Amanda Welburn-SmithF40(005/031)Pickering Running Club00:53:03L
219236159 Philip HartM40(031/037)Unattached00:53:08 
22032160 Scott BaileyM45(027/041)Unattached00:53:13 
22130161 Christopher BaileyMS(054/072)Unattached00:53:13 
22231162 Matthew BaileyMS(055/072)Unattached00:53:13 
223405163 Martin ParvinM60(011/026)York Knavesmire Harriers00:53:17 
224321164 Colin LeaM50(040/060)York Knavesmire Harriers00:53:19 
225416 061Vivianne PowF50(019/066)Aycliffe Running Club00:53:19 
226565 062Harriet WarnockFS(031/093)Unattached00:53:20 
22793165 Lionel A ChatardM45(028/041)Unattached00:53:23 
22854166 Daniel BoffMS(056/072)Unattached00:53:25 
229483 063Lucy ShawFS(032/093)Unattached00:53:26 
230468167 Bryan SawyerMS(057/072)Unattached00:53:28 
231595168 Dan WyrillM40(032/037)York Acorn Running Club00:53:33 
232234 064Lucy HarrisonF40(006/031)Unattached00:53:42 
23363169 Terry BromfieldM60(012/026)York Knavesmire Harriers00:53:42 
234223 065Jayne HardistyF50(020/066)City of York AC00:53:44 
235301 066Rebecca KingFS(033/093)West Hull Ladies RRC00:53:44 
236155170 Paul DurkinM50(041/060)Kippax & District Harrs.00:53:46 
237183 067Jennie GardinerF45(006/029)Unattached00:53:47 
238371 068Clare MoffattF40(007/031)York Knavesmire Harriers00:53:51 
239494171 Roy SimpsonM60(013/026)Ackworth Road Runners &AC00:54:05 
240103172 David BrownM60(014/026)Unattached00:54:05 
24183173 Paul CatlowM45(029/041)Unattached00:54:07 
242113 069Clare CopleyFS(034/093)Kippax & District Harrs.00:54:11 
243144174 Stuart DixonMS(058/072)Unattached00:54:14L
24498 070Carole CliffordF50(021/066)Rothwell & District Harr.00:54:18 
245338 071Jennifer LongFS(035/093)Unattached00:54:18 
2465175 Christopher AdamsM45(030/041)Pickering Running Club00:54:23 
247220 072Rachel HallF40(008/031)Unattached00:54:26L
248451 073Pamela RitucciFS(036/093)Ackworth Road Runners &AC00:54:27 
249589 074Jennifer WiseFS(037/093)Pickering Running Club00:54:35 
25012 075Fiona AlderF60(003/021)Ripon Runners00:54:35 
251399 076Gemma OughtredFS(038/093)Goole Viking Striders00:54:35 
252257 077Lisa J. HinchliffeF45(007/029)Unattached00:54:36 
253569 078Ann WatsonF45(008/029)Unattached00:54:37L
254546176 Rob TownsendM45(031/041)Unattached00:54:37L
25548 079Laura BennettFS(039/093)York Acorn Running Club00:54:39 
256178 080Vivianne FraserF50(022/066)York Knavesmire Harriers00:54:41 
257340177 Matthew LongdenM40(033/037)Unattached00:54:44 
258299 081Paula KellyFS(040/093)York Knavesmire Harriers00:54:50 
259477 082Amanda SelvaratnamF50(023/066)City of York AC00:54:53 
260444 083Emma-Jane RichardsonFS(041/093)Kippax & District Harrs.00:54:54 
261495 084Yvonne SkeltonF60(004/021)Harrogate Harriers00:55:05 
262558 085Catherine WallaceF40(009/031)Unattached00:55:07 
263147 086Linda DodsworthF60(005/021)West Hull Ladies RRC00:55:12 
264124 087Joanne DagwellF40(010/031)Unattached00:55:12 
265380 088Jayne MurphyF50(024/066)Unattached00:55:16L
266224 089Lena HardmanF40(011/031)Unattached00:55:23 
267382 090Lesley NeedhamF50(025/066)Ackworth Road Runners &AC00:55:24 
268229 091Cally HarrisonFS(042/093)East Hull Harriers00:55:30 
269316 092Sally-Anne LardnerF60(006/021)Easingwold Running Club00:55:43 
270304178 Stewart KirkM50(042/060)Unattached00:55:48 
271596179 Chris YeomanM60(015/026)Unattached00:55:51 
272244180 Graham HawdenM50(043/060)Rothwell & District Harr.00:55:56 
273252181 Daniel HickingbothamM40(034/037)Unattached00:55:57 
274510182 Nigel SparksM40(035/037)Unattached00:55:58 
275492 093Hayley SimpsonFS(043/093)Unattached00:56:02 
276281183 Chris JacksonM45(032/041)Unattached00:56:10 
277194 094Nicky GambleF45(009/029)Unattached00:56:11 
278295 095Beverley JowettF50(026/066)Unattached00:56:14 
279410 096Katherine PenroseF60(007/021)Kippax & District Harrs.00:56:16 
280571 097Michelle WattamFS(044/093)Unattached00:56:18 
281524184 Scott SwintonM50(044/060)Unattached00:56:18 
282298185 Daniel KelleherMS(059/072)Unattached00:56:19 
283590 098Nicola WiseF50(027/066)Pickering Running Club00:56:25 
284128 099Jenny DaviesF40(012/031)Unattached00:56:31 
285200 100Gillian GleggF50(028/066)Scarborough AC00:56:31 
286353 101Clare MawreyFS(045/093)Pickering Running Club00:56:32L
287179186 Michael FryerMS(060/072)Unattached00:56:32 
288150 102Charlotte DredgeFS(046/093)Beaumont RC00:56:33 
289429 103Jo QuinnF45(010/029)Unattached00:56:35 
290567 104Victoria WatheyFS(047/093)Ackworth Road Runners &AC00:56:35 
291276 105Angie IrvineF45(011/029)York Acorn Running Club00:56:37 
292579 106Amy WilesFS(048/093)Yorkshire Wolds Runners00:56:37 
29343 107Jayne BattF50(029/066)Unattached00:56:38 
294435 108Andrea ReadmanF45(012/029)Unattached00:56:38 
295307187 Jay KitchenM50(045/060)Kippax & District Harrs.00:56:43 
29640188 Ed Barker-WyattM40(036/037)Unattached00:56:52 
29758 109Stacey BoyntonFS(049/093)Unattached00:56:59 
298540 110Nichola ThornboroughFS(050/093)Tyne Bridge Harriers00:56:59 
299391189 Andrew NuutMS(061/072)Ackworth Road Runners &AC00:57:05 
300328 111Melissa LepicFS(051/093)Unattached00:57:05 
301542190 Graeme ThynneM50(046/060)Unattached00:57:06 
30244 112Helen BealF50(030/066)Unattached00:57:08L
303341 113Julie LummasF40(013/031)Unattached00:57:14 
304603 114Colette EllisF50(031/066)York Acorn Running Club00:57:15 
305450 115Nicola RileyF50(032/066)Beverley AC00:57:15 
306555 116Lauren HenshallFS(052/093)Unattached00:57:26 
307249191 Mark HenshallM50(047/060)Unattached00:57:26 
30868 117Lindsay BruceF50(033/066)Unattached00:57:29 
309141 118Catherine DennisFS(053/093)Unattached00:57:29 
310437 119Sue ReastF50(034/066)City of Hull AC00:57:34 
311134 120Danielle DawsonFS(054/093)Unattached00:57:35 
312133192 Christopher DawsonM40(037/037)Unattached00:57:35 
313265 121Georgia HoleF50(035/066)Unattached00:57:38 
314284 122Kate JacksonF50(036/066)Unattached00:57:38 
31560 123Shelley BriggsFS(055/093)Unattached00:57:38 
31681 124Amanda CaskenF50(037/066)Unattached00:57:38 
317514 125Cheryl StantonFS(056/093)Kippax & District Harrs.00:57:39 
318583193 Ian WilsonM50(048/060)Unattached00:57:46 
319206 126Camilla GrayleyF40(014/031)York Knavesmire Harriers00:57:48 
320333 127Lindsey ListerF40(015/031)Unattached00:57:53 
32155 128Sophie BoothFS(057/093)Goole Viking Striders00:57:54 
32277194 Mark CampbellM50(049/060)Unattached00:58:01L
323169 129Helen FarrellF45(013/029)City of York AC00:58:01 
324106 130Freya CollinsFS(058/093)Unattached00:58:02 
325291 131Pamela JohnsonF40(016/031)Easingwold Running Club00:58:13 
326419195 Chris PowneyM45(033/041)Unattached00:58:15 
32780 132Hester CashdanF40(017/031)Unattached00:58:21 
328441196 Pete RestallMS(062/072)Unattached00:58:27 
329231197 Christopher HarrisonMS(063/072)York Knavesmire Harriers00:58:30 
33024 133Ocean AspellFS(059/093)Unattached00:58:31 
331114198 James CopleyMS(064/072)Kippax & District Harrs.00:58:34 
332186 134Angela GarrityF40(018/031)Unattached00:58:39 
33310 135Kate AireyFS(060/093)Unattached00:58:44 
334496 136Michaela SlayFS(061/093)Unattached00:58:44 
335297199 Joshua KeighleyMS(065/072)Unattached00:58:44 
336339200 John LongM50(050/060)East Hull Harriers00:58:48 
337334 137Ann LongF60(008/021)East Hull Harriers00:58:49 
33836 138Karen BallFS(062/093)York Knavesmire Harriers00:58:51 
339121201 Stephen P. CundillM60(016/026)Unattached00:58:52 
340322202 Matthew LeachMS(066/072)Unattached00:58:57 
341479 139Karen SettleF50(038/066)Scarborough AC00:59:00 
342268 140Alison HornsbyF50(039/066)Scarborough AC00:59:00 
343351 141Abbi MatthewsFS(063/093)Unattached00:59:06L
34471 142Andrea BulmerF50(040/066)Loftus & Whitby AC00:59:10 
345574203 Philip WhiteheadM60(017/026)Unattached00:59:12 
34667204 Nigel BrownM60(018/026)Unattached00:59:26 
347219 143Gillian HallF60(009/021)Crossgates Harriers00:59:27 
348402205 Simon PageM50(051/060)York Knavesmire Harriers00:59:35 
349313 144Samira LambertF60(010/021)Kippax & District Harrs.00:59:47 
35016206 David AllsupM45(034/041)Unattached00:59:53 
351557 145Janice WalkerF50(041/066)Yorkshire Wolds Runners00:59:59 
352448 146Chloe RileyFS(064/093)Pickering Running Club01:00:00 
353460 147Sarah-Jane RossF45(014/029)Unattached01:00:05 
35419 148Pam AndersonF50(042/066)York Knavesmire Harriers01:00:10 
355431207 David RamsayM45(035/041)Unattached01:00:28 
356221 149Gillian HalliwellF60(011/021)Yorkshire Wolds Runners01:00:46 
357373 150Ruth MooreF40(019/031)Kappas Harriers01:00:51 
358506 151Zoe SmithF40(020/031)Kippax & District Harrs.01:00:54 
359260208 Paul HodginMS(067/072)York Knavesmire Harriers01:00:59 
360449 152Heather RileyFS(065/093)Pickering Running Club01:01:03 
361581 153Caroline WilsonF45(015/029)Unattached01:01:04 
36211209 Mark AireyM45(036/041)Unattached01:01:13 
363393 154Abbi OlliveFS(066/093)Unattached01:01:15 
364588210 Dean WiseM60(019/026)Pickering Running Club01:01:28 
365274 155Noelle HynesFS(067/093)Unattached01:01:30 
366394 156Denise OmblerF60(012/021)East Hull Harriers01:01:38 
367345 157Tina LyonsF45(016/029)Unattached01:01:41 
368262 158Angela HoeF50(043/066)Unattached01:01:42 
369476 159Evangeline SellarsFS(068/093)Unattached01:01:45 
370493 160Jackie SimpsonF50(044/066)Unattached01:01:51 
371606 161Lindsey TaylorF40(021/031)Unattached01:01:51 
37266 162Margaret BrownF60(013/021)York Knavesmire Harriers01:01:56 
373491211 David SimpsonM60(020/026)Unattached01:01:56 
374355 163Cheryl McbroomF50(045/066)Easingwold Running Club01:02:02 
375215 164Jill GrinsteadF50(046/066)Scarborough AC01:02:06 
376570 165Lynn WatsonF50(047/066)Scarborough AC01:02:06 
37791212 Phil ChartersMS(068/072)Unattached01:02:16 
37890 166Kate ChartersFS(069/093)Unattached01:02:18 
379317 167Rose LawFS(070/093)Unattached01:02:19 
380305 168Tracy KirkF45(017/029)Unattached01:02:20 
381243 169Jasmine HatherlyFS(071/093)Unattached01:02:30 
382239213 Adam HarveyMS(069/072)Unattached01:02:30 
383534 170Janet TerryF60(014/021)Unattached01:02:34 
384593 171Debbie WorthingtonFS(072/093)Ackworth Road Runners &AC01:02:35 
385195 172Shona GilleghanF50(048/066)Unattached01:02:35 
386359214 Michael McneillM50(052/060)Unattached01:02:39 
387347 173Samantha LythF50(049/066)York Knavesmire Harriers01:02:43 
388204 174Claire GoughF40(022/031)Kippax & District Harrs.01:02:44 
389145 175Marina DobbsF50(050/066)Kippax & District Harrs.01:02:45 
390434 176Liz RaperF60(015/021)Scarborough AC01:02:47 
391607215 Paul AshfordM45(037/041)Unattached01:02:48 
392535 177Heather ThirkellFS(073/093)Unattached01:02:49L
393586216 Paul WinksM50(053/060)Unattached01:03:02 
394452 178Stevie RobertsF40(023/031)Kippax & District Harrs.01:03:06 
395511 179Suzanne SpinkF45(018/029)Kippax & District Harrs.01:03:20 
396319 180Jeanette LawrenceF40(024/031)Unattached01:03:20 
397125217 Paul DaleyM50(054/060)Yorkshire Wolds Runners01:03:21 
398458 181Susan RogersF50(051/066)Unattached01:03:22 
39974 182Susan BurrowsF60(016/021)Unattached01:03:52 
400533218 Christopher TerryM60(021/026)Unattached01:03:57 
401364 183Avril MetcalfeF50(052/066)Scarborough AC01:03:58 
402117219 Peter CoxM60(022/026)Unattached01:03:59 
403327 184Jude LeonardF40(025/031)Unattached01:04:13 
404456 185Ruth RobsonFS(074/093)York Knavesmire Harriers01:04:19 
405454 186Kerry RobinsonF40(026/031)Ferndale Flyers01:04:20 
406400220 Richard OwenM45(038/041)Unattached01:04:21 
407559 187Kathrine WaltonF60(017/021)Unattached01:04:37 
408525221 Jon TabinerMS(070/072)Unattached01:04:39 
409306 188Carol KitchenF50(053/066)Kippax & District Harrs.01:04:40 
410551 189Lucy TurnerFS(075/093)Unattached01:04:44 
41161222 Phil BroadleyM50(055/060)Unattached01:05:01 
41229 190Rose BackhouseFS(076/093)Unattached01:05:09 
413433 191Kimberley RaperFS(077/093)Pocklington Runners01:05:11 
414176223 Mark FoulgerM45(039/041)Unattached01:05:20 
415218 192Christine HallF60(018/021)Ackworth Road Runners &AC01:05:23 
416438 193Sandra ReesF50(054/066)Unattached01:05:25 
417173 194Jayne FliggF45(019/029)York Knavesmire Harriers01:05:34 
418423224 Steve ProctorM50(056/060)Unattached01:05:34 
419378225 Robert MountifieldMS(071/072)Unattached01:05:41 
420566 195Jill WassF45(020/029)Unattached01:05:48 
421153226 Paul DunnM50(057/060)Unattached01:05:49L
42272227 Garry BurnettM50(058/060)Unattached01:05:52 
423280 196Beth JacksonFS(078/093)Unattached01:06:04 
424420 197Claire PrattFS(079/093)Unattached01:06:17 
425461 198Lynn RowanFS(080/093)Unattached01:06:18 
426314228 Philip LampreyM60(023/026)Unattached01:06:24 
427308229 Les KitchingM60(024/026)Kippax & District Harrs.01:06:43 
428401 199Catherine PageF50(055/066)St. Theresa's AC01:06:53 
429453 200Helen RobinsonF60(019/021)Unattached01:07:49 
430544 201Sarah TockF45(021/029)Beverley AC01:08:01 
431413230 John PhilpottM45(040/041)Unattached01:08:02 
43220 202Jocelyn AndersonWoodFS(081/093)Unattached01:08:29 
433237 203Sarah HartFS(082/093)Unattached01:08:31 
434142 204Helen DewsF40(027/031)Unattached01:08:38 
435235 205Lucy HartF50(056/066)Unattached01:08:38 
436412 206Lizzie PhillipsFS(083/093)Unattached01:08:39 
437161 207Nicki EdmindF50(057/066)Unattached01:09:02 
438325 208Allison LeeF40(028/031)Unattached01:09:08 
439138 209Emily DeanFS(084/093)Unattached01:09:21 
440582231 Gary WilsonM50(059/060)Ackworth Road Runners &AC01:09:26 
441180232 Gordon FurnessM45(041/041)Unattached01:10:15 
442181 210Lisa FurnessF45(022/029)Unattached01:10:15 
443598 211Josie YoungersonFS(085/093)Unattached01:10:23 
444100233 Ian CodlingM60(025/026)Thirsk & Sowerby Harriers01:10:26 
445367 212Kim MiddletonF50(058/066)York Knavesmire Harriers01:10:32 
446283 213Elizabeth JacksonF45(023/029)Unattached01:10:32 
447102 214Kate ColcuttF50(059/066)Unattached01:10:53 
44814 215Clare AlexanderF45(024/029)Unattached01:10:53 
449160 216Dearbhia HarhenFS(086/093)Unattached01:12:05 
450482 217Robyn SharpeFS(087/093)Kippax & District Harrs.01:12:15 
4517234 Paul AdamsM60(026/026)York Knavesmire Harriers01:12:22 
452111 218Christine CooperF50(060/066)Ripon Runners01:12:32 
453500 219Helen SmithFS(088/093)Kippax & District Harrs.01:12:36 
454539 220Amy ThomsonF40(029/031)Unattached01:12:47 
455384 221Jenny NettletonF50(061/066)Unattached01:13:08 
456385235 Keith NettletonM50(060/060)Unattached01:13:09 
457336 222Hannah LongF40(030/031)Unattached01:13:13 
458279 223Penny IvisonF50(062/066)Darlington Harriers & AC01:13:50 
459259 224Leigh HindleF40(031/031)Darlington Harriers & AC01:13:53 
460188 225Amanda Garvey KovacF45(025/029)Darlington Harriers & AC01:14:23 
461214236 Craig GriffithsMS(072/072)Unattached01:14:29 
462446 226Hayley RichardsonFS(089/093)Unattached01:14:29 
4638 227Susan AdamsF60(020/021)York Knavesmire Harriers01:14:34 
464516 228Liz StephensonFS(090/093)Thirsk & Sowerby Harriers01:14:45 
465101 229Marian CodlingF60(021/021)Thirsk & Sowerby Harriers01:15:30 
466379 230Jess MoxonFS(091/093)Unattached01:15:33 
467568 231Rosalind WatkinsonF50(063/066)Unattached01:15:58 
468136 232Melanie DayF45(026/029)Scarborough AC01:16:40 
469599 233Susan YoungersonF50(064/066)Unattached01:16:51 
470398 234Maxine OsgerbyF45(027/029)Fitmums & Friends01:16:54 
47134 235Julie BakerF50(065/066)Ackworth Road Runners &AC01:17:15 
472459 236Michelle RookesF45(028/029)Scarborough AC01:17:16 
473406 237Wendy PattisonF45(029/029)Scarborough AC01:17:20 
474294 238Christine JonesF50(066/066)Unattached01:18:50 
475159 239Ashlie EddonFS(092/093)Unattached01:23:15L
476445 240Gemma RichardsonFS(093/093)Unattached01:23:15 

Copyright © 2017 John Schofield. Unauthorised copying prohibited
Back to race calendar - Top of page - Vets and statistics